createdAt,value
2022-08-25T00:01:55.044Z,88.76
2022-08-25T00:04:24.161Z,89.29
2022-08-25T00:06:51.967Z,89.46
2022-08-25T00:09:22.837Z,90.03
2022-08-25T00:11:53.963Z,90.29
2022-08-25T00:14:24.249Z,89.87
2022-08-25T00:16:52.111Z,90.74
2022-08-25T00:19:29.277Z,91.32
2022-08-25T00:21:57.067Z,91.07
2022-08-25T00:24:25.280Z,89.51
2022-08-25T00:26:55.026Z,88.71
2022-08-25T00:29:23.967Z,88.41
2022-08-25T00:31:51.498Z,90.00
2022-08-25T00:34:22.284Z,90.21
2022-08-25T00:36:49.909Z,90.29
2022-08-25T00:39:18.050Z,90.60
2022-08-25T00:41:45.515Z,89.80
2022-08-25T00:44:13.936Z,89.72
2022-08-25T00:46:51.316Z,90.02
2022-08-25T00:49:42.548Z,90.44
2022-08-25T00:52:16.812Z,90.05
2022-08-25T00:55:09.457Z,89.29
2022-08-25T00:57:42.069Z,89.79
2022-08-25T01:00:20.865Z,89.70
2022-08-25T01:02:48.526Z,90.39
2022-08-25T01:05:17.720Z,89.15
2022-08-25T01:07:45.698Z,89.23
2022-08-25T01:10:13.722Z,89.30
2022-08-25T01:12:41.391Z,88.39
2022-08-25T01:15:11.119Z,88.52
2022-08-25T01:17:52.788Z,88.29
2022-08-25T01:20:24.610Z,88.77
2022-08-25T01:22:57.476Z,89.22
2022-08-25T01:25:28.366Z,88.00
2022-08-25T01:27:55.898Z,87.84
2022-08-25T01:30:24.108Z,87.88
2022-08-25T01:32:52.104Z,87.43
2022-08-25T01:35:19.876Z,88.06
2022-08-25T01:37:47.337Z,88.47
2022-08-25T01:40:15.125Z,88.20
2022-08-25T01:43:08.075Z,88.11
2022-08-25T01:45:36.444Z,87.99
2022-08-25T01:48:04.882Z,87.60
2022-08-25T01:50:32.915Z,86.11
2022-08-25T01:53:07.794Z,86.49
2022-08-25T01:55:36.874Z,86.80
2022-08-25T01:58:04.671Z,86.95
2022-08-25T02:00:32.762Z,86.55
2022-08-25T02:03:00.846Z,86.67
2022-08-25T02:05:28.274Z,86.93
2022-08-25T02:07:56.358Z,85.38
2022-08-25T02:10:26.974Z,86.29
2022-08-25T02:12:57.449Z,86.37
2022-08-25T02:15:24.917Z,86.62
2022-08-25T02:17:52.524Z,86.65
2022-08-25T02:20:20.065Z,85.48
2022-08-25T02:22:56.657Z,86.18
2022-08-25T02:25:25.471Z,86.73
2022-08-25T02:27:52.828Z,86.72
2022-08-25T02:30:20.407Z,86.12
2022-08-25T02:32:48.295Z,85.89
2022-08-25T02:35:16.848Z,86.41
2022-08-25T02:37:44.506Z,86.88
2022-08-25T02:40:12.615Z,87.51
2022-08-25T02:42:42.727Z,86.23
2022-08-25T02:45:10.450Z,83.59
2022-08-25T02:47:38.050Z,83.18
2022-08-25T02:50:06.299Z,83.44
2022-08-25T02:52:33.757Z,83.90
2022-08-25T02:55:03.884Z,84.88
2022-08-25T02:57:31.774Z,84.65
2022-08-25T02:59:59.376Z,84.57
2022-08-25T03:02:27.880Z,84.40
2022-08-25T03:04:55.359Z,83.67
2022-08-25T03:07:22.701Z,84.37
2022-08-25T03:09:52.500Z,85.34
2022-08-25T03:12:19.825Z,86.02
2022-08-25T03:14:47.154Z,86.08
2022-08-25T03:17:15.326Z,86.58
2022-08-25T03:19:42.626Z,87.54
2022-08-25T03:22:10.133Z,86.95
2022-08-25T03:24:37.812Z,87.17
2022-08-25T03:27:05.477Z,86.35
2022-08-25T03:29:33.737Z,87.35
2022-08-25T03:32:01.816Z,87.50
2022-08-25T03:34:30.459Z,89.40
2022-08-25T03:36:59.532Z,88.87
2022-08-25T03:39:27.189Z,88.16
2022-08-25T03:41:54.632Z,87.95
2022-08-25T03:44:22.731Z,89.03
2022-08-25T03:46:51.677Z,88.29
2022-08-25T03:49:23.183Z,87.83
2022-08-25T03:51:52.889Z,88.10
2022-08-25T03:54:23.350Z,88.50
2022-08-25T03:56:51.453Z,88.84
2022-08-25T03:59:19.088Z,88.68
2022-08-25T04:01:50.223Z,88.34
2022-08-25T04:04:20.711Z,90.12
2022-08-25T04:06:48.002Z,89.47
2022-08-25T04:09:15.379Z,89.15
2022-08-25T04:11:43.171Z,89.98
2022-08-25T04:14:13.001Z,89.74
2022-08-25T04:16:45.048Z,89.85
2022-08-25T04:19:13.505Z,89.88
2022-08-25T04:21:41.199Z,89.77
2022-08-25T04:24:10.717Z,89.77
2022-08-25T04:26:41.193Z,91.27
2022-08-25T04:29:09.501Z,91.20
2022-08-25T04:31:39.514Z,90.95
2022-08-25T04:34:13.429Z,91.21
2022-08-25T04:36:55.181Z,90.71
2022-08-25T04:39:24.906Z,90.63
2022-08-25T04:41:52.392Z,90.48
2022-08-25T04:44:20.130Z,89.66
2022-08-25T04:46:47.598Z,89.34
2022-08-25T04:49:15.347Z,88.84
2022-08-25T04:51:43.126Z,88.65
2022-08-25T04:54:15.373Z,88.69
2022-08-25T04:56:43.490Z,88.96
2022-08-25T04:59:13.984Z,89.09
2022-08-25T05:01:41.796Z,89.45
2022-08-25T05:04:14.699Z,88.79
2022-08-25T05:06:56.241Z,88.57
2022-08-25T05:09:27.579Z,88.98
2022-08-25T05:11:55.440Z,88.79
2022-08-25T05:14:26.170Z,88.61
2022-08-25T05:16:57.317Z,88.47
2022-08-25T05:19:24.887Z,88.71
2022-08-25T05:21:52.492Z,88.48
2022-08-25T05:24:20.715Z,88.25
2022-08-25T05:26:48.104Z,87.86
2022-08-25T05:29:15.434Z,87.74
2022-08-25T05:31:50.413Z,87.55
2022-08-25T05:34:19.068Z,87.85
2022-08-25T05:36:47.661Z,87.60
2022-08-25T05:39:15.118Z,87.24
2022-08-25T05:41:42.447Z,86.88
2022-08-25T05:44:10.088Z,86.44
2022-08-25T05:46:37.617Z,86.89
2022-08-25T05:49:05.166Z,87.20
2022-08-25T05:51:32.966Z,86.68
2022-08-25T05:54:00.433Z,85.73
2022-08-25T05:56:30.219Z,86.83
2022-08-25T05:58:57.819Z,86.19
2022-08-25T06:01:28.021Z,84.64
2022-08-25T06:03:55.593Z,83.64
2022-08-25T06:06:24.512Z,83.34
2022-08-25T06:08:52.136Z,81.76
2022-08-25T06:11:20.193Z,81.20
2022-08-25T06:13:47.553Z,81.01
2022-08-25T06:16:15.191Z,80.38
2022-08-25T06:18:45.186Z,81.23
2022-08-25T06:21:18.466Z,80.36
2022-08-25T06:23:46.318Z,78.45
2022-08-25T06:26:20.762Z,77.42
2022-08-25T06:32:17.011Z,77.87
2022-08-25T06:35:06.452Z,77.62
2022-08-25T06:37:54.012Z,77.16
2022-08-25T06:40:41.887Z,76.76
2022-08-25T06:43:29.431Z,75.97
2022-08-25T06:46:20.535Z,73.31
2022-08-25T06:49:08.345Z,73.93
2022-08-25T06:51:56.556Z,73.69
2022-08-25T06:54:47.278Z,72.84
2022-08-25T06:57:37.112Z,72.67
2022-08-25T07:00:30.293Z,72.75
2022-08-25T07:03:25.033Z,68.82
2022-08-25T07:06:17.225Z,67.91
2022-08-25T07:09:08.326Z,69.54
2022-08-25T07:11:55.871Z,69.83
2022-08-25T07:14:58.071Z,69.57
2022-08-25T07:17:52.296Z,68.74
2022-08-25T07:20:40.621Z,66.99
2022-08-25T07:23:28.532Z,65.21
2022-08-25T07:26:37.616Z,64.72
2022-08-25T07:29:32.204Z,64.86
2022-08-25T07:32:20.833Z,66.00
2022-08-25T07:35:09.417Z,64.68
2022-08-25T07:37:59.291Z,64.14
2022-08-25T07:40:47.140Z,64.33
2022-08-25T07:43:41.352Z,63.18
2022-08-25T07:46:29.116Z,62.49
2022-08-25T07:49:17.882Z,61.66
2022-08-25T07:52:10.908Z,62.19
2022-08-25T07:54:58.776Z,60.74
2022-08-25T07:57:46.370Z,63.15
2022-08-25T08:00:40.736Z,60.87
2022-08-25T08:03:45.233Z,59.85
2022-08-25T08:06:39.303Z,58.58
2022-08-25T08:09:27.150Z,58.69
2022-08-25T08:12:15.208Z,59.72
2022-08-25T08:15:03.937Z,57.52
2022-08-25T08:17:59.498Z,59.60
2022-08-25T08:20:48.322Z,57.47
2022-08-25T08:23:35.851Z,57.74
2022-08-25T08:26:36.257Z,55.89
2022-08-25T08:29:29.602Z,55.25
2022-08-25T08:32:19.580Z,53.85
2022-08-25T08:35:07.547Z,55.97
2022-08-25T08:37:55.806Z,54.84
2022-08-25T08:41:06.245Z,56.17
2022-08-25T08:44:07.236Z,53.71
2022-08-25T08:47:32.036Z,55.16
2022-08-25T08:50:35.042Z,53.98
2022-08-25T08:53:27.650Z,55.55
2022-08-25T08:56:45.173Z,56.40
2022-08-25T08:59:48.680Z,55.42
2022-08-25T09:02:51.391Z,54.42
2022-08-25T09:05:51.238Z,56.12
2022-08-25T09:08:44.485Z,54.93
2022-08-25T09:12:09.682Z,55.04
2022-08-25T09:15:24.485Z,54.05
2022-08-25T09:18:26.985Z,54.03
2022-08-25T09:21:41.416Z,53.05
2022-08-25T09:24:34.092Z,52.39
2022-08-25T09:27:44.993Z,52.25
2022-08-25T09:30:45.775Z,50.74
2022-08-25T09:33:35.579Z,50.83
2022-08-25T09:36:24.351Z,50.18
2022-08-25T09:39:12.937Z,49.10
2022-08-25T09:42:01.055Z,49.28
2022-08-25T09:44:49.205Z,48.52
2022-08-25T09:47:44.467Z,48.89
2022-08-25T09:50:35.011Z,47.67
2022-08-25T09:53:22.894Z,50.01
2022-08-25T09:56:11.556Z,49.09
2022-08-25T09:59:21.219Z,48.41
2022-08-25T10:02:29.458Z,48.03
2022-08-25T10:05:26.472Z,48.32
2022-08-25T10:08:28.681Z,46.07
2022-08-25T10:11:38.180Z,47.49
2022-08-25T10:14:25.940Z,46.91
2022-08-25T10:17:15.948Z,47.17
2022-08-25T10:20:09.681Z,46.58
2022-08-25T10:23:12.002Z,45.71
2022-08-25T10:26:08.963Z,45.54
2022-08-25T10:29:35.191Z,45.45
2022-08-25T10:32:31.370Z,43.58
2022-08-25T10:35:27.870Z,42.62
2022-08-25T10:38:28.734Z,43.21
2022-08-25T10:41:23.867Z,45.55
2022-08-25T10:44:39.813Z,43.07
2022-08-25T10:47:39.526Z,42.96
2022-08-25T10:51:00.533Z,42.19
2022-08-25T10:54:15.063Z,42.00
2022-08-25T10:57:12.170Z,42.66
2022-08-25T11:00:11.692Z,41.41
2022-08-25T11:03:14.957Z,39.92
2022-08-25T11:06:10.835Z,39.99
2022-08-25T11:09:01.210Z,40.09
2022-08-25T11:11:54.023Z,37.83
2022-08-25T11:14:57.198Z,37.50
2022-08-25T11:17:57.204Z,38.39
2022-08-25T11:21:20.112Z,37.89
2022-08-25T11:24:33.070Z,38.25
2022-08-25T11:27:37.422Z,36.94
2022-08-25T11:30:26.564Z,36.65
2022-08-25T11:33:15.122Z,34.68
2022-08-25T11:36:06.852Z,33.47
2022-08-25T12:04:44.406Z,34.34
2022-08-25T12:07:24.546Z,32.95
2022-08-25T12:09:52.215Z,33.92
2022-08-25T12:12:31.575Z,33.62
2022-08-25T12:15:17.302Z,34.16
2022-08-25T12:17:45.580Z,33.43
2022-08-25T12:20:14.932Z,35.62
2022-08-25T12:22:43.662Z,34.18
2022-08-25T12:25:31.123Z,34.10
2022-08-25T12:28:09.190Z,34.29
2022-08-25T12:30:50.796Z,33.44
2022-08-25T12:33:40.267Z,34.14
2022-08-25T12:36:11.308Z,33.73
2022-08-25T12:38:51.811Z,33.03
2022-08-25T12:41:22.380Z,32.75
2022-08-25T12:43:54.591Z,33.94
2022-08-25T12:46:23.415Z,33.80
2022-08-25T12:49:29.249Z,33.67
2022-08-25T12:52:02.617Z,33.36
2022-08-25T12:54:52.391Z,35.94
2022-08-25T12:57:25.118Z,34.36
2022-08-25T12:59:59.977Z,34.38
2022-08-25T13:02:52.105Z,34.25
2022-08-25T13:05:25.921Z,35.40
2022-08-25T13:08:15.367Z,34.20
2022-08-25T13:10:58.572Z,36.55
2022-08-25T13:13:37.967Z,37.72
2022-08-25T13:16:09.653Z,37.03
2022-08-25T13:18:38.424Z,37.98
2022-08-25T13:21:28.050Z,38.50
2022-08-25T13:24:04.611Z,38.70
2022-08-25T13:26:37.948Z,38.44
2022-08-25T13:29:27.235Z,37.79
2022-08-25T13:32:09.181Z,36.61
2022-08-25T13:34:42.547Z,36.01
2022-08-25T13:37:19.872Z,36.09
2022-08-25T13:39:58.694Z,35.07
2022-08-25T13:42:28.641Z,35.72
2022-08-25T13:44:56.516Z,34.74
2022-08-25T13:47:43.655Z,34.40
2022-08-25T13:50:27.232Z,34.41
2022-08-25T13:53:16.334Z,35.12
2022-08-25T13:55:57.319Z,34.64
2022-08-25T13:58:45.192Z,33.40
2022-08-25T14:01:23.672Z,34.77
2022-08-25T14:04:39.943Z,34.99
2022-08-25T14:07:20.405Z,35.94
2022-08-25T14:09:59.892Z,36.36
2022-08-25T14:12:34.072Z,33.90
2022-08-25T14:15:27.776Z,33.58
2022-08-25T14:18:15.359Z,35.17
2022-08-25T14:20:46.433Z,33.94
2022-08-25T14:23:18.884Z,35.38
2022-08-25T14:25:48.952Z,35.34
2022-08-25T14:28:20.372Z,35.75
2022-08-25T14:30:51.834Z,35.89
2022-08-25T14:33:22.261Z,36.78
2022-08-25T14:35:52.773Z,34.67
2022-08-25T14:38:21.810Z,36.29
2022-08-25T14:40:49.670Z,36.95
2022-08-25T14:43:20.904Z,37.24
2022-08-25T14:45:52.013Z,36.50
2022-08-25T14:48:44.492Z,35.96
2022-08-25T14:51:33.162Z,35.67
2022-08-25T14:54:24.421Z,35.50
2022-08-25T14:57:13.382Z,34.13
2022-08-25T15:00:01.721Z,34.42
2022-08-25T15:02:50.611Z,34.97
2022-08-25T15:05:25.476Z,34.53
2022-08-25T15:07:54.411Z,33.36
2022-08-25T15:10:22.671Z,33.93
2022-08-25T15:12:53.906Z,34.99
2022-08-25T15:15:22.481Z,34.64
2022-08-25T15:17:50.506Z,33.11
2022-08-25T15:20:18.611Z,33.43
2022-08-25T15:22:46.889Z,33.24
2022-08-25T15:25:16.642Z,34.51
2022-08-25T15:27:45.059Z,34.94
2022-08-25T15:30:14.544Z,34.66
2022-08-25T15:32:43.121Z,34.76
2022-08-25T15:35:15.299Z,35.01
2022-08-25T15:37:43.359Z,35.22
2022-08-25T15:40:12.096Z,35.23
2022-08-25T15:42:42.770Z,35.86
2022-08-25T15:45:16.196Z,36.72
2022-08-25T15:47:45.889Z,35.62
2022-08-25T15:50:16.496Z,35.84
2022-08-25T15:52:45.994Z,36.54
2022-08-25T15:55:17.256Z,35.98
2022-08-25T15:57:44.967Z,37.71
2022-08-25T16:00:13.561Z,37.10
2022-08-25T16:02:44.533Z,36.76
2022-08-25T16:05:16.367Z,37.43
2022-08-25T16:07:44.721Z,38.36
2022-08-25T16:10:13.484Z,37.75
2022-08-25T16:12:42.766Z,38.32
2022-08-25T16:15:12.256Z,37.73
2022-08-25T16:17:40.772Z,38.69
2022-08-25T16:20:16.107Z,37.96
2022-08-25T16:22:43.385Z,38.47
2022-08-25T16:25:11.973Z,38.70
2022-08-25T16:27:39.545Z,38.44
2022-08-25T16:30:08.795Z,39.54
2022-08-25T16:32:36.617Z,39.82
2022-08-25T16:35:05.820Z,40.57
2022-08-25T16:37:38.855Z,40.93
2022-08-25T16:40:09.368Z,41.21
2022-08-25T16:42:38.192Z,41.96
2022-08-25T16:45:06.567Z,41.72
2022-08-25T16:47:37.671Z,42.44
2022-08-25T16:50:07.871Z,42.68
2022-08-25T16:52:39.142Z,42.94
2022-08-25T16:55:08.780Z,43.77
2022-08-25T16:57:36.139Z,44.08
2022-08-25T17:00:06.063Z,43.76
2022-08-25T17:02:34.133Z,44.54
2022-08-25T17:05:02.106Z,44.30
2022-08-25T17:07:29.488Z,44.50
2022-08-25T17:09:59.561Z,44.82
2022-08-25T17:12:27.533Z,45.02
2022-08-25T17:14:54.892Z,46.13
2022-08-25T17:17:26.971Z,46.62
2022-08-25T17:19:54.835Z,46.55
2022-08-25T17:22:22.896Z,47.10
2022-08-25T17:24:53.433Z,47.64
2022-08-25T17:27:30.615Z,47.83
2022-08-25T17:29:58.376Z,48.20
2022-08-25T17:32:28.726Z,48.35
2022-08-25T17:34:58.353Z,49.59
2022-08-25T17:37:25.906Z,49.36
2022-08-25T17:40:02.570Z,49.76
2022-08-25T17:42:31.318Z,50.05
2022-08-25T17:44:58.668Z,50.69
2022-08-25T17:47:27.531Z,51.55
2022-08-25T17:49:55.149Z,51.56
2022-08-25T17:52:25.628Z,52.11
2022-08-25T17:54:53.006Z,52.66
2022-08-25T17:57:21.744Z,52.67
2022-08-25T17:59:49.075Z,52.77
2022-08-25T18:02:16.440Z,52.88
2022-08-25T18:04:44.778Z,53.36
2022-08-25T18:07:12.261Z,53.12
2022-08-25T18:09:39.665Z,53.11
2022-08-25T18:12:07.491Z,53.33
2022-08-25T18:14:37.719Z,53.75
2022-08-25T18:17:05.652Z,53.99
2022-08-25T18:19:33.959Z,54.11
2022-08-25T18:22:01.507Z,54.21
2022-08-25T18:24:29.039Z,54.20
2022-08-25T18:26:56.635Z,54.17
2022-08-25T18:29:42.943Z,54.43
2022-08-25T18:32:30.801Z,54.58
2022-08-25T18:35:21.348Z,54.85
2022-08-25T18:38:09.629Z,55.33
2022-08-25T18:40:37.305Z,55.69
2022-08-25T18:43:06.995Z,55.07
2022-08-25T18:45:43.554Z,55.39
2022-08-25T18:48:11.570Z,55.53
2022-08-25T18:50:40.939Z,56.03
2022-08-25T18:53:09.998Z,55.83
2022-08-25T18:55:39.809Z,56.45
2022-08-25T18:58:07.564Z,56.14
2022-08-25T19:00:40.791Z,56.13
2022-08-25T19:03:09.805Z,56.68
2022-08-25T19:05:39.150Z,56.82
2022-08-25T19:08:11.298Z,56.52
2022-08-25T19:10:39.343Z,56.75
2022-08-25T19:13:08.128Z,56.72
2022-08-25T19:15:37.534Z,56.77
2022-08-25T19:18:09.890Z,57.20
2022-08-25T19:20:38.931Z,57.06
2022-08-25T19:23:07.694Z,57.05
2022-08-25T19:25:35.833Z,57.41
2022-08-25T19:28:12.138Z,57.73
2022-08-25T19:30:39.925Z,57.65
2022-08-25T19:33:42.621Z,58.43
2022-08-25T19:36:08.750Z,57.92
2022-08-25T19:38:37.569Z,58.13
2022-08-25T19:41:09.056Z,58.29
2022-08-25T19:43:56.781Z,58.28
2022-08-25T19:46:33.320Z,58.34
2022-08-25T19:49:17.061Z,58.88
2022-08-25T19:51:51.156Z,59.52
2022-08-25T19:54:26.485Z,59.17
2022-08-25T19:56:55.861Z,58.91
2022-08-25T19:59:36.568Z,59.37
2022-08-25T20:02:19.718Z,59.51
2022-08-25T20:04:50.251Z,59.36
2022-08-25T20:07:22.430Z,59.36
2022-08-25T20:09:53.018Z,59.49
2022-08-25T20:12:20.708Z,59.51
2022-08-25T20:14:49.712Z,59.79
2022-08-25T20:17:24.780Z,60.04
2022-08-25T20:19:55.723Z,59.93
2022-08-25T20:22:26.657Z,59.91
2022-08-25T20:24:59.240Z,59.83
2022-08-25T20:27:35.028Z,59.73
2022-08-25T20:30:09.407Z,59.88
2022-08-25T20:32:37.321Z,59.55
2022-08-25T20:35:08.940Z,59.55
2022-08-25T20:37:37.336Z,59.70
2022-08-25T20:40:05.522Z,59.54
2022-08-25T20:42:33.038Z,59.93
2022-08-25T20:45:01.169Z,59.59
2022-08-25T20:47:28.705Z,59.78
2022-08-25T20:49:58.045Z,59.94
2022-08-25T20:52:26.085Z,60.53
2022-08-25T20:54:53.468Z,60.43
2022-08-25T20:57:25.659Z,60.52
2022-08-25T20:59:55.181Z,60.94
2022-08-25T21:02:24.068Z,60.82
2022-08-25T21:04:53.094Z,61.19
2022-08-25T21:07:23.887Z,61.24
2022-08-25T21:09:51.689Z,61.69
2022-08-25T21:12:19.419Z,61.95
2022-08-25T21:14:47.028Z,62.17
2022-08-25T21:17:15.471Z,62.36
2022-08-25T21:22:19.623Z,62.04
2022-08-25T21:24:47.805Z,62.10
2022-08-25T21:27:17.700Z,62.09
2022-08-25T21:29:54.606Z,62.02
2022-08-25T21:32:25.739Z,62.29
2022-08-25T21:34:54.426Z,62.32
2022-08-25T21:37:22.330Z,62.28
2022-08-25T21:39:50.689Z,62.25
2022-08-25T21:42:19.946Z,62.03
2022-08-25T21:44:47.503Z,62.02
2022-08-25T21:47:15.314Z,61.73
2022-08-25T21:49:49.574Z,61.90
2022-08-25T21:52:17.859Z,61.72
2022-08-25T21:54:48.723Z,61.83
2022-08-25T21:57:16.470Z,62.31
2022-08-25T21:59:45.146Z,62.18
2022-08-25T22:02:13.578Z,61.95
2022-08-25T22:04:41.606Z,62.22
2022-08-25T22:07:10.701Z,62.17
2022-08-25T22:09:38.373Z,62.25
2022-08-25T22:12:06.500Z,62.48
2022-08-25T22:14:34.838Z,62.53
2022-08-25T22:17:06.033Z,62.61
2022-08-25T22:19:36.783Z,62.58
2022-08-25T22:22:04.514Z,62.56
2022-08-25T22:24:31.905Z,62.79
2022-08-25T22:26:59.587Z,62.54
2022-08-25T22:29:28.176Z,63.10
2022-08-25T22:32:00.933Z,63.17
2022-08-25T22:34:34.003Z,63.44
2022-08-25T22:37:02.401Z,63.07
2022-08-25T22:39:32.171Z,63.07
2022-08-25T22:42:02.541Z,63.52
2022-08-25T22:44:30.278Z,63.72
2022-08-25T22:46:57.888Z,63.97
2022-08-25T22:49:28.622Z,63.76
2022-08-25T22:51:56.209Z,64.19
2022-08-25T22:54:23.976Z,64.19
2022-08-25T22:56:53.241Z,64.71
2022-08-25T22:59:22.470Z,64.56
2022-08-25T23:01:50.704Z,64.70
2022-08-25T23:04:19.131Z,64.93
2022-08-25T23:06:47.063Z,64.90
2022-08-25T23:09:14.855Z,65.11
2022-08-25T23:11:43.136Z,65.30
2022-08-25T23:14:10.456Z,65.43
2022-08-25T23:16:39.643Z,65.60
2022-08-25T23:19:13.930Z,65.60
2022-08-25T23:21:42.876Z,65.84
2022-08-25T23:24:11.335Z,65.94
2022-08-25T23:26:41.971Z,66.15
2022-08-25T23:29:18.148Z,65.76
2022-08-25T23:31:47.792Z,65.99
2022-08-25T23:34:16.554Z,66.04
2022-08-25T23:36:44.907Z,66.13
2022-08-25T23:39:12.176Z,66.28
2022-08-25T23:41:41.827Z,66.24
2022-08-25T23:44:11.631Z,66.22
2022-08-25T23:46:39.612Z,66.39
2022-08-25T23:49:08.388Z,66.28
2022-08-25T23:51:38.081Z,66.78
2022-08-25T23:54:09.237Z,66.63
2022-08-25T23:56:42.471Z,65.91
2022-08-25T23:59:14.427Z,66.27
